createdAt,value
2023-01-20T00:03:37.389Z,-0.85
2023-01-20T00:09:06.744Z,-0.79
2023-01-20T00:14:31.102Z,-0.77
2023-01-20T00:19:53.642Z,-0.83
2023-01-20T00:25:18.237Z,-0.74
2023-01-20T00:30:48.056Z,-0.74
2023-01-20T00:36:14.607Z,-0.65
2023-01-20T00:41:42.373Z,-0.66
2023-01-20T00:47:04.514Z,-0.67
2023-01-20T00:52:26.783Z,-0.71
2023-01-20T00:57:51.853Z,-0.71
2023-01-20T01:03:14.167Z,-0.64
2023-01-20T01:08:36.760Z,-0.53
2023-01-20T01:13:59.082Z,-0.50
2023-01-20T01:19:21.065Z,-0.46
2023-01-20T01:24:45.252Z,-0.47
2023-01-20T01:30:08.344Z,-0.42
2023-01-20T01:35:30.731Z,-0.49
2023-01-20T01:40:54.202Z,-0.45
2023-01-20T01:46:16.314Z,-0.42
2023-01-20T01:51:43.481Z,-0.44
2023-01-20T01:57:08.244Z,-0.39
2023-01-20T02:02:30.665Z,-0.38
2023-01-20T02:07:53.611Z,-0.47
2023-01-20T02:13:15.388Z,-0.51
2023-01-20T02:19:06.829Z,-0.33
2023-01-20T02:24:44.014Z,-0.27
2023-01-20T02:30:34.347Z,-0.29
2023-01-20T02:36:03.165Z,-0.25
2023-01-20T02:41:42.572Z,-0.22
2023-01-20T02:47:32.402Z,-0.21
2023-01-20T02:52:55.997Z,-0.17
2023-01-20T02:58:24.603Z,-0.10
2023-01-20T03:03:53.496Z,-0.19
2023-01-20T03:09:23.942Z,-0.27
2023-01-20T03:14:46.044Z,-0.10
2023-01-20T03:20:14.854Z,-0.01
2023-01-20T03:25:40.486Z,-0.04
2023-01-20T03:31:27.328Z,-0.06
2023-01-20T03:36:50.683Z,-0.11
2023-01-20T03:42:35.002Z,-0.07
2023-01-20T03:48:21.385Z,-0.11
2023-01-20T03:53:58.890Z,-0.09
2023-01-20T03:59:23.617Z,0.01
2023-01-20T04:04:56.802Z,0.08
2023-01-20T04:10:19.378Z,0.05
2023-01-20T04:15:45.013Z,0.06
2023-01-20T04:21:09.489Z,0.05
2023-01-20T04:26:36.987Z,0.02
2023-01-20T04:32:03.541Z,0.13
2023-01-20T04:37:26.803Z,0.18
2023-01-20T04:42:49.403Z,0.15
2023-01-20T04:48:12.160Z,0.15
2023-01-20T04:53:37.182Z,0.15
2023-01-20T04:59:00.045Z,0.26
2023-01-20T05:04:23.843Z,0.25
2023-01-20T05:09:45.842Z,0.25
2023-01-20T05:15:08.296Z,0.21
2023-01-20T05:20:30.342Z,0.24
2023-01-20T05:25:53.025Z,0.20
2023-01-20T05:31:15.217Z,0.25
2023-01-20T05:36:37.366Z,0.24
2023-01-20T05:41:59.427Z,0.13
2023-01-20T05:47:21.332Z,0.26
2023-01-20T05:52:43.504Z,0.27
2023-01-20T05:58:06.423Z,0.22
2023-01-20T06:03:31.653Z,0.15
2023-01-20T06:08:54.978Z,0.20
2023-01-20T06:14:17.512Z,0.16
2023-01-20T06:19:42.382Z,0.18
2023-01-20T06:25:12.907Z,0.19
2023-01-20T06:30:38.827Z,0.22
2023-01-20T06:36:05.433Z,0.10
2023-01-20T06:41:29.944Z,0.17
2023-01-20T06:46:52.635Z,0.15
2023-01-20T06:52:14.741Z,0.19
2023-01-20T06:57:37.211Z,0.21
2023-01-20T07:02:59.610Z,0.13
2023-01-20T07:08:21.974Z,0.33
2023-01-20T07:13:43.982Z,0.27
2023-01-20T07:19:06.207Z,0.32
2023-01-20T07:24:28.163Z,0.32
2023-01-20T07:29:50.083Z,0.25
2023-01-20T07:35:12.668Z,0.30
2023-01-20T07:40:35.113Z,0.31
2023-01-20T07:46:02.111Z,0.37
2023-01-20T07:51:24.168Z,0.36
2023-01-20T07:56:45.970Z,0.32
2023-01-20T08:02:11.977Z,0.27
2023-01-20T08:07:34.924Z,0.27
2023-01-20T08:13:00.560Z,0.37
2023-01-20T08:18:23.181Z,0.46
2023-01-20T08:23:45.744Z,0.34
2023-01-20T08:29:13.562Z,0.35
2023-01-20T08:34:36.252Z,0.55
2023-01-20T08:40:00.762Z,0.49
2023-01-20T08:45:25.181Z,0.67
2023-01-20T08:50:47.662Z,0.69
2023-01-20T08:56:11.412Z,0.78
2023-01-20T09:01:38.531Z,0.83
2023-01-20T09:07:02.872Z,0.77
2023-01-20T09:12:26.169Z,0.77
2023-01-20T09:17:48.523Z,0.90
2023-01-20T09:23:10.453Z,0.87
2023-01-20T09:28:33.601Z,0.78
2023-01-20T09:33:56.453Z,0.80
2023-01-20T09:39:37.215Z,0.93
2023-01-20T09:45:30.385Z,0.98
2023-01-20T09:51:18.242Z,1.06
2023-01-20T09:56:46.505Z,1.11
2023-01-20T10:02:26.092Z,1.01
2023-01-20T10:07:57.627Z,1.07
2023-01-20T10:13:33.293Z,1.07
2023-01-20T10:19:22.520Z,1.06
2023-01-20T10:24:48.185Z,1.07
2023-01-20T10:30:12.810Z,1.05
2023-01-20T10:35:38.646Z,1.05
2023-01-20T10:41:23.131Z,1.00
2023-01-20T10:46:47.903Z,1.08
2023-01-20T10:52:34.043Z,1.10
2023-01-20T10:58:02.483Z,1.13
2023-01-20T11:03:25.754Z,1.25
2023-01-20T11:08:53.240Z,1.22
2023-01-20T11:14:15.754Z,1.26
2023-01-20T11:19:57.429Z,1.32
2023-01-20T11:25:28.742Z,1.26
2023-01-20T12:00:02.264Z,1.26
2023-01-20T12:06:38.759Z,1.35
2023-01-20T12:12:05.346Z,1.17
2023-01-20T12:17:57.709Z,1.15
2023-01-20T12:23:39.933Z,1.24
2023-01-20T12:29:52.350Z,1.26
2023-01-20T12:35:16.311Z,1.08
2023-01-20T12:40:43.893Z,1.19
2023-01-20T12:46:33.414Z,1.07
2023-01-20T12:52:15.919Z,1.15
2023-01-20T12:57:48.035Z,1.12
2023-01-20T13:03:30.648Z,1.08
2023-01-20T13:09:28.191Z,1.03
2023-01-20T13:14:57.835Z,1.05
2023-01-20T13:20:26.512Z,1.00
2023-01-20T13:25:49.717Z,0.95
2023-01-20T13:31:42.250Z,0.92
2023-01-20T13:37:04.246Z,0.88
2023-01-20T13:42:38.143Z,0.89
2023-01-20T13:48:30.557Z,0.76
2023-01-20T13:53:53.862Z,0.74
2023-01-20T13:59:17.184Z,0.75
2023-01-20T14:04:48.649Z,0.70
2023-01-20T14:10:21.972Z,0.64
2023-01-20T14:15:45.089Z,0.65
2023-01-20T14:21:26.847Z,0.63
2023-01-20T14:26:49.572Z,0.57
2023-01-20T14:32:37.179Z,0.62
2023-01-20T14:38:00.077Z,0.43
2023-01-20T14:43:23.714Z,0.32
2023-01-20T14:48:47.215Z,0.38
2023-01-20T14:54:29.582Z,0.39
2023-01-20T15:00:13.410Z,0.37
2023-01-20T15:05:37.727Z,0.27
2023-01-20T15:11:15.102Z,0.34
2023-01-20T15:16:36.783Z,0.34
2023-01-20T15:22:21.579Z,0.22
2023-01-20T15:27:43.615Z,0.26
2023-01-20T15:33:09.581Z,0.31
2023-01-20T15:38:32.750Z,0.21
2023-01-20T15:43:54.673Z,0.20
2023-01-20T15:49:20.333Z,0.22
2023-01-20T15:54:45.903Z,0.22
2023-01-20T16:00:26.776Z,0.26
2023-01-20T16:05:51.164Z,0.16
2023-01-20T16:11:18.171Z,0.12
2023-01-20T16:16:43.899Z,0.25
2023-01-20T16:22:16.988Z,0.25
2023-01-20T16:27:44.364Z,0.13
2023-01-20T16:33:21.813Z,0.00
2023-01-20T16:38:50.173Z,-0.01
2023-01-20T16:44:14.395Z,0.06
2023-01-20T16:49:41.052Z,-0.01
2023-01-20T16:55:06.301Z,0.02
2023-01-20T17:00:29.512Z,-0.09
2023-01-20T17:05:53.092Z,-0.13
2023-01-20T17:11:26.058Z,0.01
2023-01-20T17:16:59.755Z,-0.08
2023-01-20T17:22:22.532Z,-0.20
2023-01-20T17:27:47.230Z,-0.17
2023-01-20T17:33:09.351Z,-0.31
2023-01-20T17:38:40.518Z,-0.20
2023-01-20T17:44:04.648Z,-0.37
2023-01-20T17:49:26.777Z,-0.30
2023-01-20T17:54:49.182Z,-0.32
2023-01-20T18:00:12.043Z,-0.32
2023-01-20T18:05:36.378Z,-0.42
2023-01-20T18:11:07.484Z,-0.36
2023-01-20T18:16:32.143Z,-0.40
2023-01-20T18:21:54.524Z,-0.45
2023-01-20T18:27:19.265Z,-0.43
2023-01-20T18:32:42.996Z,-0.45
2023-01-20T18:38:04.860Z,-0.40
2023-01-20T18:43:26.804Z,-0.41
2023-01-20T18:48:49.694Z,-0.47
2023-01-20T18:54:18.847Z,-0.49
2023-01-20T18:59:43.971Z,-0.43
2023-01-20T19:05:09.472Z,-0.41
2023-01-20T19:10:36.801Z,-0.36
2023-01-20T19:15:59.412Z,-0.29
2023-01-20T19:21:26.824Z,-0.30
2023-01-20T19:26:52.494Z,-0.30
2023-01-20T19:32:14.574Z,-0.37
2023-01-20T19:37:36.779Z,-0.35
2023-01-20T19:43:01.313Z,-0.41
2023-01-20T19:48:23.760Z,-0.27
2023-01-20T19:53:47.307Z,-0.28
2023-01-20T19:59:12.935Z,-0.29
2023-01-20T20:04:35.112Z,-0.42
2023-01-20T20:09:57.561Z,-0.33
2023-01-20T20:15:19.817Z,-0.37
2023-01-20T20:20:43.913Z,-0.62
2023-01-20T20:26:06.593Z,-0.61
2023-01-20T20:31:29.817Z,-0.73
2023-01-20T20:36:52.505Z,-0.79
2023-01-20T20:42:17.156Z,-0.83
2023-01-20T20:47:39.173Z,-0.89
2023-01-20T20:53:01.126Z,-0.96
2023-01-20T20:58:23.379Z,-1.04
2023-01-20T21:03:48.352Z,-1.03
2023-01-20T21:09:10.877Z,-1.09
2023-01-20T21:14:33.145Z,-1.12
2023-01-20T21:19:54.886Z,-1.22
2023-01-20T21:25:18.143Z,-1.22
2023-01-20T21:30:39.934Z,-1.21
2023-01-20T21:36:02.792Z,-1.22
2023-01-20T21:41:25.105Z,-1.23
2023-01-20T21:47:01.748Z,-1.34
2023-01-20T21:52:43.346Z,-1.27
2023-01-20T21:58:05.872Z,-1.44
2023-01-20T22:03:28.197Z,-1.35
2023-01-20T22:08:50.416Z,-1.47
2023-01-20T22:14:13.024Z,-1.50
2023-01-20T22:19:35.638Z,-1.47
2023-01-20T22:24:57.742Z,-1.52
2023-01-20T22:30:20.412Z,-1.48
2023-01-20T22:35:45.053Z,-1.57
2023-01-20T22:41:10.293Z,-1.50
2023-01-20T22:46:32.477Z,-1.37
2023-01-20T22:51:55.693Z,-1.35
2023-01-20T22:57:17.693Z,-1.34
2023-01-20T23:08:29.493Z,-1.30
2023-01-20T23:13:52.732Z,-1.31
2023-01-20T23:19:14.715Z,-1.31
2023-01-20T23:24:36.460Z,-1.42
2023-01-20T23:29:58.593Z,-1.28
2023-01-20T23:35:20.576Z,-1.30
2023-01-20T23:40:42.240Z,-1.22
2023-01-20T23:46:07.165Z,-1.23
2023-01-20T23:51:32.031Z,-1.31
2023-01-20T23:56:59.625Z,-1.34
